aviador You're here:

LKMT Decoded Metar

OSTRAVA in CZECH REPUBLIC
Report Time2017-08-17 13:30:00
UTC Time2017-08-17 13:36:27
Flight Rules vfr VFR
Wind060° at 05 kt
W.Decomp.*RWY 04: 4.8 kt HW 1.4 kt RCW
W.Rank060° ranks 16
Current wind is below 060° avg. (5.2)
Visibility9999 m
Phenomena:N/A
Clouds:Few 030 Hf
Expected CloudBase > 3,600 ft AGL from Temp-Dew spread
CeilingNone
Temp25°C (ISA +12)
Dew Point16°C (57% RH)
QNH1020 hPa
Density Alt2,198 ft
Elevation840 ft
Report Wrong Elevation
Raw Report
METAR LKMT 171330Z 06005KT 010V110 9999 FEW030 25/16 Q1020 NOSIG=

Extra information for LKMT:More info

Metar Taf Metar & Taf Last 4 Metars F.Rules Stats Wind Profile Meteogram Temp Stats Airport Information Weather charts Add Link Nearby VenuesMetar ALERT Operation Metar Decoded Social comments